Latest Coastal Weather Observations for Tasman Island

IDT60701

Issued at 11:02 pm EST Friday 6 May 2016 (issued every 10 minutes, with the page automatically refreshed every 10 minutes)

About coastal observations | Map of coastal stations | Coastal observations for TAS | Marine services | Other Formats
Station Details ID: 094155 Name: TASMAN ISLAND Lat: -43.24 Lon: 148.00 Height: 240.0 m
Data from the previous 72 hours. | See also: Recent months at Tasman Island
Date/Time
EST
Temp

°C
Wind Pressure Rain
since 9am
mm
Weather Cloud Vis
km
Sea
Height
m
Swell
Dir
 
Speed
knots
Gust
knots
hPa Trend Height
m
Period
s
Dir
06/11:00pm 12.3 NNW 15 22 1014.4 - 0.0 - - - - - - -
06/10:30pm 12.2 NNW 16 22 1014.2 - 0.0 - - - - - - -
06/10:00pm 12.2 NW 14 24 1014.1 - 0.0 - - - - - - -
06/09:30pm 12.2 NNW 11 17 1014.2 - 0.0 - - - - - - -
06/09:00pm 12.5 NW 11 17 1014.0 - 0.0 - - - - - - -
06/08:30pm 12.6 NW 8 12 1013.6 - 0.0 - - - - - - -
06/08:00pm 12.6 NW 11 15 1013.1 - 0.0 - - - - - - -
06/07:30pm 13.0 NW 8 17 1012.8 - 0.0 - - - - - - -
06/07:00pm 13.3 WNW 6 20 1012.7 - 0.0 - - - - - - -
06/06:30pm 13.1 NW 12 21 1012.1 - 0.0 - - - - - - -
06/06:14pm 13.3 NW 15 25 1011.9 - 0.0 - - - - - - -
06/06:00pm 13.5 WNW 9 19 1011.6 - 0.0 - - - - - - -
06/05:30pm 13.7 NW 7 19 1011.0 - 0.0 - - - - - - -
06/05:00pm 13.7 NW 13 25 1010.9 - 0.0 - - - - - - -
06/04:30pm 14.2 NW 8 19 1010.7 - 0.0 - - - - - - -
06/04:00pm 15.5 WNW 4 12 1010.6 - 0.0 - - - - - - -
06/03:30pm 15.0 NW 10 16 1010.0 - 0.0 - - - - - - -
06/03:00pm 15.0 WNW 8 20 1009.7 - 0.0 - - - - - - -
06/02:30pm 15.5 NW 9 18 1009.4 - 0.0 - - - - - - -
06/02:00pm 15.0 NW 10 17 1009.3 - 0.0 - - - - - - -
06/01:30pm 14.6 NW 12 17 1009.2 - 0.0 - - - - - - -
06/01:00pm 15.5 NW 12 17 1009.1 - 0.0 - - - - - - -
06/12:30pm 14.7 NW 15 24 1009.1 - 0.0 - - - - - - -
06/12:00pm 14.6 NW 19 26 1009.2 - 0.0 - - - - - - -
06/11:30am 14.6 NW 15 27 1009.5 - 0.0 - - - - - - -
06/11:13am 14.8 WNW 15 27 1009.4 - 0.0 - - - - - - -
06/11:00am 15.0 NW 12 19 1009.5 - 0.0 - - - - - - -
06/10:30am 14.4 NW 10 15 1009.3 - 0.0 - - - - - - -
06/10:00am 13.9 NW 15 23 1008.9 - 0.0 - - - - - - -
06/09:30am 13.6 WNW 11 23 1008.3 - 0.0 - - - - - - -
06/09:00am 13.2 NW 16 30 1008.3 - 0.0 - - - - - - -
06/08:55am 13.3 WNW 17 30 1008.3 - 0.0 - - - - - - -
06/08:30am 12.6 WNW 13 20 1008.3 - 0.0 - - - - - - -
06/08:00am 12.2 WNW 13 21 1007.9 - 0.0 - - - - - - -
06/07:30am 12.4 WNW 8 16 1007.3 - 0.0 - - - - - - -
06/07:00am 12.0 WNW 11 19 1006.6 - 0.0 - - - - - - -
06/06:30am 12.2 NW 8 18 1006.3 - 0.0 - - - - - - -
06/06:00am 12.3 NW 4 11 1005.9 - 0.0 - - - - - - -
06/05:30am 12.6 WNW 4 13 1005.5 - 0.0 - - - - - - -
06/05:00am 12.6 NW 5 17 1005.3 - 0.0 - - - - - - -
06/04:30am 12.9 SSE 4 14 1004.5 - 0.0 - - - - - - -
06/04:00am 14.8 W 7 13 1004.3 - 0.0 - - - - - - -
06/03:30am 15.1 NW 14 21 1004.2 - 0.0 - - - - - - -
06/03:00am 15.6 NW 19 29 1003.7 - 0.0 - - - - - - -
06/02:30am 15.9 NW 19 31 1003.5 - 0.0 - - - - - - -
06/02:00am 16.5 NW 25 38 1003.5 - 0.0 - - - - - - -
06/01:50am 16.6 NW 15 34 1003.4 - 0.0 - - - - - - -
06/01:30am 16.5 NW 15 22 1003.3 - 0.0 - - - - - - -
06/01:08am 16.2 NW 17 28 1003.6 - 0.0 - - - - - - -
06/01:00am 16.2 NW 18 28 1003.5 - 0.0 - - - - - - -
06/12:57am 16.2 NNW 16 27 1003.4 - 0.0 - - - - - - -
06/12:30am 15.8 NNW 11 22 1003.4 - 0.0 - - - - - - -
06/12:07am 15.7 N 15 27 1002.8 - 0.0 - - - - - - -
06/12:00am 15.2 N 14 22 1002.9 - 0.0 - - - - - - -
 
Date/Time
EST
Temp

°C
Wind Pressure Rain
since 9am
mm
Weather Cloud Vis
km
Sea
Height
m
Swell
Dir
 
Speed
knots
Gust
knots
hPa Trend Height
m
Period
s
Dir
05/11:34pm 15.4 N 15 26 1002.8 - 0.0 - - - - - - -
05/11:30pm 15.3 N 14 26 1002.7 - 0.0 - - - - - - -
05/11:00pm 15.6 NNW 12 25 1003.4 - 0.0 - - - - - - -
05/10:56pm 15.4 N 16 25 1003.3 - 0.0 - - - - - - -
05/10:30pm 15.5 NNW 9 18 1003.5 - 0.0 - - - - - - -
05/10:13pm 15.8 N 13 27 1003.3 - 0.0 - - - - - - -
05/10:00pm 15.6 NNW 13 23 1003.1 - 0.0 - - - - - - -
05/09:30pm 15.5 N 18 33 1003.7 - 0.0 - - - - - - -
05/09:00pm 15.2 N 18 30 1003.7 - 0.0 - - - - - - -
05/08:34pm 15.3 N 17 27 1003.8 - 0.0 - - - - - - -
05/08:30pm 15.1 N 14 27 1003.8 - 0.0 - - - - - - -
05/08:03pm 15.3 N 22 33 1003.8 - 0.0 - - - - - - -
05/08:00pm 15.5 N 23 33 1003.8 - 0.0 - - - - - - -
05/07:32pm 15.3 N 22 31 1004.0 - 0.0 - - - - - - -
05/07:30pm 15.4 N 19 29 1003.9 - 0.0 - - - - - - -
05/07:05pm 15.6 N 16 26 1004.2 - 0.0 - - - - - - -
05/07:00pm 15.3 N 17 25 1004.0 - 0.0 - - - - - - -
05/06:30pm 15.6 N 23 33 1003.8 - 0.0 - - - - - - -
05/06:00pm 15.8 N 17 29 1003.5 - 0.0 - - - - - - -
05/05:34pm 15.9 N 19 31 1003.6 - 0.0 - - - - - - -
05/05:30pm 15.8 N 18 27 1003.6 - 0.0 - - - - - - -
05/05:01pm 15.9 N 19 29 1003.6 - 0.0 - - - - - - -
05/05:00pm 15.9 N 20 29 1003.5 - 0.0 - - - - - - -
05/04:34pm 15.9 N 24 34 1003.7 - 0.0 - - - - - - -
05/04:30pm 15.9 N 25 33 1003.6 - 0.0 - - - - - - -
05/04:00pm 16.2 N 25 33 1003.5 - 0.0 - - - - - - -
05/03:30pm 15.7 N 26 35 1003.6 - 0.0 - - - - - - -
05/03:00pm 16.0 N 23 35 1003.7 - 0.0 - - - - - - -
05/02:40pm 16.1 NNW 21 33 1003.9 - 0.0 - - - - - - -
05/02:30pm 16.0 NNW 19 29 1004.1 - 0.0 - - - - - - -
05/02:07pm 16.9 N 15 25 1004.3 - 0.0 - - - - - - -
05/02:00pm 16.9 N 18 26 1004.4 - 0.0 - - - - - - -
05/01:30pm 16.6 N 23 32 1004.4 - 0.0 - - - - - - -
05/01:00pm 16.6 N 18 31 1005.0 - 0.0 - - - - - - -
05/12:36pm 15.9 N 15 25 1005.3 - 0.0 - - - - - - -
05/12:30pm 15.6 N 18 25 1005.3 - 0.0 - - - - - - -
05/12:00pm 15.3 N 19 28 1005.9 - 0.0 - - - - - - -
05/11:49am 15.7 N 19 29 1006.0 - 0.0 - - - - - - -
05/11:30am 16.2 N 23 32 1006.1 - 0.0 - - - - - - -
05/11:00am 14.9 N 23 29 1006.9 - 0.0 - - - - - - -
05/10:33am 14.8 N 18 29 1007.0 - 0.0 - - - - - - -
05/10:30am 14.8 N 19 28 1007.0 - 0.0 - - - - - - -
05/10:00am 15.0 NNW 20 34 1007.0 - 0.0 - - - - - - -
05/09:30am 15.0 NNW 21 38 1007.0 - 0.0 - - - - - - -
05/09:00am 14.6 NNW 21 32 1007.0 - 0.0 - - - - - - -
05/08:30am 14.3 NNW 25 35 1006.3 - 0.0 - - - - - - -
05/08:00am 14.3 NNW 23 37 1006.6 - 0.0 - - - - - - -
05/07:30am 14.1 NNW 24 38 1006.1 - 0.0 - - - - - - -
05/07:00am 14.1 NNW 22 32 1006.1 - 0.0 - - - - - - -
05/06:30am 13.7 NNW 22 35 1005.5 - 0.0 - - - - - - -
05/06:00am 13.6 NNW 18 28 1005.8 - 0.0 - - - - - - -
05/05:30am 13.6 NNW 20 31 1005.8 - 0.0 - - - - - - -
05/05:04am 13.3 NNW 17 28 1005.4 - 0.0 - - - - - - -
05/05:00am 13.7 NNW 19 28 1005.4 - 0.0 - - - - - - -
05/04:30am 13.5 NNW 19 30 1004.9 - 0.0 - - - - - - -
05/04:00am 13.8 NNW 24 39 1004.7 - 0.0 - - - - - - -
05/03:30am 13.1 NNW 21 32 1004.6 - 0.0 - - - - - - -
05/03:02am 13.0 NNW 24 35 1004.4 - 0.0 - - - - - - -
05/03:00am 13.2 NNW 25 35 1004.2 - 0.0 - - - - - - -
05/02:30am 12.7 NNW 24 36 1004.0 - 0.0 - - - - - - -
05/02:00am 12.7 N 25 40 1004.5 - 0.0 - - - - - - -
05/01:41am 12.4 N 24 34 1004.6 - 0.0 - - - - - - -
05/01:30am 12.3 N 25 33 1004.7 - 0.0 - - - - - - -
05/01:00am 12.4 NNW 23 34 1004.8 - 0.0 - - - - - - -
05/12:30am 12.2 N 25 36 1005.0 - 0.0 - - - - - - -
05/12:00am 11.9 N 26 38 1005.0 - 0.0 - - - - - - -
 
Date/Time
EST
Temp

°C
Wind Pressure Rain
since 9am
mm
Weather Cloud Vis
km
Sea
Height
m
Swell
Dir
 
Speed
knots
Gust
knots
hPa Trend Height
m
Period
s
Dir
04/11:30pm 11.8 NNW 24 37 1005.2 - 0.0 - - - - - - -
04/11:00pm 11.5 N 22 36 1005.4 - 0.0 - - - - - - -
04/10:30pm 11.3 NNW 18 33 1005.7 - 0.0 - - - - - - -
04/10:00pm 11.6 NNW 15 27 1005.7 - 0.0 - - - - - - -
04/09:32pm 11.3 NNW 16 27 1006.1 - 0.0 - - - - - - -
04/09:30pm 11.5 NNW 17 26 1006.2 - 0.0 - - - - - - -
04/09:00pm 11.4 NNW 22 37 1006.0 - 0.0 - - - - - - -
04/08:30pm 11.2 NNW 21 33 1005.9 - 0.0 - - - - - - -
04/08:04pm 11.3 NNW 17 29 1005.8 - 0.0 - - - - - - -
04/08:00pm 11.3 NNW 17 25 1005.8 - 0.0 - - - - - - -
04/07:30pm 11.3 NW 22 33 1005.8 - 0.0 - - - - - - -
04/07:06pm 11.1 NNW 17 28 1006.2 - 0.0 - - - - - - -
04/07:00pm 11.2 NNW 17 25 1006.3 - 0.0 - - - - - - -
04/06:39pm 11.1 NNW 18 28 1006.1 - 0.0 - - - - - - -
04/06:30pm 11.3 NNW 20 29 1005.9 - 0.0 - - - - - - -
04/06:01pm 11.2 NW 24 34 1005.8 - 0.0 - - - - - - -
04/06:00pm 11.2 NW 25 34 1005.8 - 0.0 - - - - - - -
04/05:48pm 11.1 NW 17 29 1005.8 - 0.0 - - - - - - -
04/05:30pm 10.9 NNW 12 22 1006.0 - 0.0 - - - - - - -
04/05:00pm 10.9 NW 17 25 1005.6 - 0.0 - - - - - - -
04/04:30pm 11.3 NW 15 23 1005.6 - 0.0 - - - - - - -
04/04:19pm 11.4 NW 15 25 1005.6 - 0.0 - - - - - - -
04/04:00pm 11.6 NW 15 21 1005.7 - 0.0 - - - - - - -
04/03:35pm 11.8 NW 16 27 1005.7 - 0.0 - - - - - - -
04/03:30pm 11.9 NW 15 24 1005.6 - 0.0 - - - - - - -
04/03:00pm 11.0 NNW 12 19 1005.6 - 0.0 - - - - - - -
04/02:30pm 10.9 NNW 16 24 1005.7 - 0.0 - - - - - - -
04/02:20pm 10.8 NW 15 27 1005.6 - 0.0 - - - - - - -
04/02:00pm 12.4 NNW 12 23 1005.6 - 0.0 - - - - - - -
04/01:30pm 11.9 NNW 17 24 1005.5 - 0.0 - - - - - - -
04/01:00pm 11.7 NW 14 21 1005.6 - 0.0 - - - - - - -
04/12:30pm 11.4 NW 15 23 1005.6 - 0.0 - - - - - - -
04/12:00pm 11.5 NW 12 18 1005.9 - 0.0 - - - - - - -
04/11:30am 9.9 NW 14 21 1006.2 - 0.0 - - - - - - -
04/11:00am 9.8 NW 16 27 1005.3 - 0.0 - - - - - - -
04/10:33am 9.4 NW 15 27 1005.2 - 0.0 - - - - - - -
04/10:30am 9.3 NW 14 27 1005.1 - 0.0 - - - - - - -
04/10:00am 9.1 NW 16 27 1004.7 - 0.0 - - - - - - -
04/09:52am 8.8 NW 15 32 1004.6 - 0.0 - - - - - - -
04/09:30am 8.9 WNW 9 23 1004.5 - 0.0 - - - - - - -
04/09:24am 8.5 WNW 14 25 1004.3 - 0.0 - - - - - - -
04/09:00am 8.1 NW 20 30 1003.8 - 2.4 - - - - - - -
04/08:30am 7.9 WNW 19 31 1003.6 - 2.4 - - - - - - -
04/08:00am 7.2 WNW 23 33 1003.3 - 2.4 - - - - - - -
04/07:30am 6.8 WNW 16 29 1003.0 - 2.4 - - - - - - -
04/07:00am 6.8 WNW 15 30 1002.3 - 2.4 - - - - - - -
04/06:31am 6.7 NW 23 34 1001.4 - 2.4 - - - - - - -
04/06:30am 6.7 NW 23 33 1001.3 - 2.4 - - - - - - -
04/06:03am 6.6 WNW 22 32 1001.0 - 2.4 - - - - - - -
04/06:00am 6.6 NW 23 32 1001.0 - 2.4 - - - - - - -
04/05:33am 7.0 NW 15 27 1000.8 - 2.4 - - - - - - -
04/05:30am 6.9 NW 13 27 1000.7 - 2.4 - - - - - - -
04/05:00am 6.8 WNW 15 28 999.9 - 2.4 - - - - - - -
04/04:33am 6.9 NW 15 32 999.2 - 2.4 - - - - - - -
04/04:30am 6.7 WNW 13 32 999.2 - 2.4 - - - - - - -
04/04:00am 6.5 NW 23 34 998.1 - 2.4 - - - - - - -
04/03:30am 6.7 NW 22 34 997.3 - 2.4 - - - - - - -
04/03:06am 6.5 WNW 15 29 997.1 - 2.4 - - - - - - -
04/03:00am 6.5 NW 14 29 997.0 - 2.4 - - - - - - -
04/02:30am 6.8 NW 19 34 996.3 - 2.4 - - - - - - -
04/02:00am 6.7 NW 17 38 996.0 - 2.4 - - - - - - -
04/01:39am 6.6 NW 15 34 995.8 - 2.4 - - - - - - -
04/01:30am 6.4 WNW 13 24 995.8 - 2.4 - - - - - - -
04/01:00am 6.7 NW 16 33 995.5 - 2.4 - - - - - - -
04/12:30am 7.0 NW 32 55 994.3 - 2.4 - - - - - - -
04/12:00am 6.6 NW 37 50 993.7 - 2.4 - - - - - - -
 
Date/Time
EST
Temp

°C
Wind Pressure Rain
since 9am
mm
Weather Cloud Vis
km
Sea
Height
m
Swell
Dir
 
Speed
knots
Gust
knots
hPa Trend Height
m
Period
s
Dir
03/11:44pm 6.8 NW 23 46 993.6 - 2.4 - - - - - - -
03/11:30pm 7.3 NW 22 42 993.6 - 2.4 - - - - - - -
03/11:12pm 7.1 WNW 30 46 993.7 - 2.4 - - - - - - -
03/11:11pm 7.2 WNW 31 46 993.7 - 2.4 - - - - - - -
03/11:03pm 7.2 WNW 28 46 993.4 - 2.4 - - - - - - -

Other Formats:

Comma delimited format used in spreadsheet applications
http://www.bom.gov.au/fwo/IDT60701/IDT60701.95986.axf

JavaScript Object Notation format (JSON) in row-major order
http://www.bom.gov.au/fwo/IDT60701/IDT60701.95986.json